Meteo Giornale » Osservazioni meteo Stati Uniti (USA) » Darlington Co Jetport
ore: 22:56 - Osservazioni Meteo Darlington Co Jetport
Lat. 34° 26' N Lon. 79° 53' W Alt. 59 metri s.l.m.
26 °C
Sereno
Temp. 24 Ore
22 °C
33 °C
Nord
5.5 Km/h
Dew point 24 °C
Umidità 88 %
Visibilità 10 Km
Il sole sorge alle ore 06:52
Il sole tramonta alle ore 19:47
| Data e Ora | Cielo e Fenomeni | T °C | DP °C | Um. % | Pres. hPa | Vis. km | Vento km/h | |
|---|---|---|---|---|---|---|---|---|
| Oggi h: 22:56 | Sereno | 26 | 24 | 88 | 1019 | 10 | N 5.5 | |
| Oggi h: 21:56 | Sereno | 26 | 23 | 83 | 1019 | 10 | S 9.3 | |
| Oggi h: 20:56 | Sereno | 27 | 24 | 83 | 1018 | 10 | N 0 | |
| Oggi h: 19:56 | Sereno | 28 | 24 | 78 | 1018 | 13 | N 0 | |
| Oggi h: 18:56 | Sereno | 33 | 24 | 59 | 1018 | 10 | N 0 | |
| Oggi h: 17:56 | Sereno | 33 | 22 | 52 | 1018 | 10 | N 13 | |
| Oggi h: 16:56 | Sereno | 33 | 22 | 52 | 1018 | 10 | N 7.4 | |
| Oggi h: 15:56 | Sereno | 33 | 22 | 52 | 1018 | 10 | N 0 | |
| Oggi h: 14:56 | Sereno | 33 | 23 | 55 | 1019 | 10 | N 0 | |
| Oggi h: 13:56 | Sereno | 32 | 23 | 59 | 1020 | 10 | O/SO 9.3 | |
| Oggi h: 12:56 | Poco Nuvoloso | 31 | 22 | 58 | 1020 | 10 | N 0 | |
| Oggi h: 12:13 | Nuvoloso | 31 | 23 | 62 | 1021 | 10 | N 5.5 | |
| Oggi h: 11:56 | Molto Nuvoloso | 31 | 24 | 66 | 1021 | 10 | O/NO 7.4 | |
| Oggi h: 11:47 | Nuvoloso | 31 | 23 | 62 | 1021 | 10 | N 0 | |
| Oggi h: 11:16 | Molto Nuvoloso | 30 | 23 | 66 | 1021 | 10 | N 5.5 | |
| Oggi h: 10:56 | Poco Nuvoloso | 29 | 24 | 74 | 1021 | 10 | N 0 | |
| Oggi h: 09:56 | Sereno | 26 | 24 | 88 | 1020 | 10 | N 0 | |
| Oggi h: 08:56 | Poco Nuvoloso | 24 | 24 | 100 | 1021 | 10 | N 5.5 | |
| Oggi h: 08:34 | Nuvoloso | 23 | 23 | 100 | 1020 | 10 | N 0 | |
| Oggi h: 08:06 | Foschia | 23 | 23 | 100 | 1020 | 5 | N 7.4 | |
| Oggi h: 08:00 | Foschia | 22 | 22 | 100 | 1020 | 2 | N 0 | |
| Oggi h: 07:56 | Nebbia | 22 | 22 | 100 | 1020 | 2 | N 5.5 | |
| Oggi h: 07:20 | Nebbia | 22 | 22 | 100 | 1020 | 2 | N 7.4 | |
| Oggi h: 06:56 | Nebbia | 22 | 22 | 100 | 1020 | 2 | N 0 | |
| Oggi h: 06:36 | Nebbia | 22 | 22 | 100 | 1020 | 2 | N 0 | |
| Oggi h: 06:27 | Nebbia | 22 | 22 | 100 | 1020 | 2 | N/NO 7.4 | |
| Oggi h: 05:59 | Foschia | 22 | 22 | 100 | 1020 | 5 | N 0 | |
| Oggi h: 05:56 | Foschia | 22 | 22 | 100 | 1020 | 2 | N 0 | |
| Oggi h: 05:52 | Foschia | 22 | 22 | 100 | 1020 | 5 | N 0 | |
| Oggi h: 05:51 | Foschia | 22 | 22 | 100 | 1020 | 3 | N 0 | |
| Oggi h: 04:56 | Foschia | 22 | 22 | 100 | 1020 | 10 | N 0 | |
| Oggi h: 03:56 | Sereno | 22 | 22 | 100 | 1019 | 11 | N 0 | |
| Oggi h: 02:56 | Foschia | 23 | 23 | 100 | 1020 | 8 | N 0 | |
| Oggi h: 01:56 | Sereno | 23 | 23 | 100 | 1020 | 13 | N 0 | |
| Oggi h: 00:56 | Sereno | 23 | 23 | 100 | 1020 | 14 | N 0 | |
| Ieri h: 23:56 | Sereno | 24 | 24 | 100 | 1020 | 10 | N 0 | |



